Jacob Lake, Arizona
Current Conditions -  °F | °C
As of 10:15 PM on Friday 21 Nov 2014 (Local Time) from KSGU Reporting Station
Clear Clear  
Wind Chill: 45°   Ceiling: Unl
Heat Index: 48°   Visibility: 10mi
Dew Point: 19°   Wind: 7mph
Humidity: 32%   Direction: 100°E
Pressure: 30.06"   Gusts: NA
Location:  36.9484°N, 112.529°W
Report Text: KSGU 220515Z AUTO 10006KT 10SM CLR 09/M07 A3006 RMK AO1
Loading
Personal Weather Stations






























Interactive Weather Map New forecast layout! Learn more

10-Day Weather Forecast

Advertisements
Track Severe Weather on mobile